sensor_id;sensor_type;location;lat;lon;timestamp;P1;durP1;ratioP1;P2;durP2;ratioP2
5553;SDS011;2800;49.528;8.666;2023-02-24T00:01:12;41.83;;;33.20;;
5553;SDS011;2800;49.528;8.666;2023-02-24T00:03:42;44.70;;;33.70;;
5553;SDS011;2800;49.528;8.666;2023-02-24T00:06:08;40.57;;;32.73;;
5553;SDS011;2800;49.528;8.666;2023-02-24T00:08:39;43.60;;;33.30;;
5553;SDS011;2800;49.528;8.666;2023-02-24T00:11:09;43.67;;;33.53;;
5553;SDS011;2800;49.528;8.666;2023-02-24T00:13:37;40.57;;;32.00;;
5553;SDS011;2800;49.528;8.666;2023-02-24T00:16:03;38.00;;;31.80;;
5553;SDS011;2800;49.528;8.666;2023-02-24T00:18:30;42.40;;;33.47;;
5553;SDS011;2800;49.528;8.666;2023-02-24T00:21:01;43.73;;;32.93;;
5553;SDS011;2800;49.528;8.666;2023-02-24T00:23:32;42.87;;;34.10;;
5553;SDS011;2800;49.528;8.666;2023-02-24T00:26:00;47.77;;;35.13;;
5553;SDS011;2800;49.528;8.666;2023-02-24T00:28:26;45.47;;;36.07;;
5553;SDS011;2800;49.528;8.666;2023-02-24T00:30:53;50.00;;;35.97;;
5553;SDS011;2800;49.528;8.666;2023-02-24T00:33:19;49.47;;;37.60;;
5553;SDS011;2800;49.528;8.666;2023-02-24T00:35:48;51.30;;;37.47;;
5553;SDS011;2800;49.528;8.666;2023-02-24T00:38:13;50.80;;;37.73;;
5553;SDS011;2800;49.528;8.666;2023-02-24T00:40:39;46.17;;;36.60;;
5553;SDS011;2800;49.528;8.666;2023-02-24T00:43:09;49.87;;;37.27;;
5553;SDS011;2800;49.528;8.666;2023-02-24T00:45:38;53.60;;;37.63;;
5553;SDS011;2800;49.528;8.666;2023-02-24T00:48:04;54.70;;;38.00;;
5553;SDS011;2800;49.528;8.666;2023-02-24T00:50:30;50.50;;;37.03;;
5553;SDS011;2800;49.528;8.666;2023-02-24T00:52:56;50.80;;;35.80;;
5553;SDS011;2800;49.528;8.666;2023-02-24T00:55:21;51.57;;;37.30;;
5553;SDS011;2800;49.528;8.666;2023-02-24T00:57:50;48.70;;;36.90;;
5553;SDS011;2800;49.528;8.666;2023-02-24T01:00:16;54.17;;;37.40;;
5553;SDS011;2800;49.528;8.666;2023-02-24T01:02:43;52.20;;;38.50;;
5553;SDS011;2800;49.528;8.666;2023-02-24T01:05:10;53.17;;;38.50;;
5553;SDS011;2800;49.528;8.666;2023-02-24T01:07:36;55.43;;;39.03;;
5553;SDS011;2800;49.528;8.666;2023-02-24T01:10:03;55.90;;;39.43;;
5553;SDS011;2800;49.528;8.666;2023-02-24T01:12:32;51.77;;;36.83;;
5553;SDS011;2800;49.528;8.666;2023-02-24T01:15:17;53.03;;;39.90;;
5553;SDS011;2800;49.528;8.666;2023-02-24T01:17:44;49.83;;;37.50;;
5553;SDS011;2800;49.528;8.666;2023-02-24T01:20:10;60.10;;;39.37;;
5553;SDS011;2800;49.528;8.666;2023-02-24T01:22:43;53.70;;;39.27;;
5553;SDS011;2800;49.528;8.666;2023-02-24T01:25:13;46.87;;;36.00;;
5553;SDS011;2800;49.528;8.666;2023-02-24T01:27:39;48.40;;;36.27;;
5553;SDS011;2800;49.528;8.666;2023-02-24T01:30:08;55.37;;;39.20;;
5553;SDS011;2800;49.528;8.666;2023-02-24T01:32:39;54.33;;;38.47;;
5553;SDS011;2800;49.528;8.666;2023-02-24T01:35:06;56.20;;;39.10;;
5553;SDS011;2800;49.528;8.666;2023-02-24T01:37:32;54.53;;;40.20;;
5553;SDS011;2800;49.528;8.666;2023-02-24T01:39:57;52.07;;;37.60;;
5553;SDS011;2800;49.528;8.666;2023-02-24T01:42:23;58.53;;;41.00;;
5553;SDS011;2800;49.528;8.666;2023-02-24T01:47:16;59.77;;;40.20;;
5553;SDS011;2800;49.528;8.666;2023-02-24T01:49:47;55.37;;;41.00;;
5553;SDS011;2800;49.528;8.666;2023-02-24T01:52:16;56.70;;;40.33;;
5553;SDS011;2800;49.528;8.666;2023-02-24T01:57:26;53.60;;;39.60;;
5553;SDS011;2800;49.528;8.666;2023-02-24T01:59:55;58.27;;;39.03;;
5553;SDS011;2800;49.528;8.666;2023-02-24T02:02:35;58.37;;;39.70;;
5553;SDS011;2800;49.528;8.666;2023-02-24T02:05:04;57.97;;;40.27;;
5553;SDS011;2800;49.528;8.666;2023-02-24T02:07:33;57.23;;;39.07;;
5553;SDS011;2800;49.528;8.666;2023-02-24T02:09:59;62.67;;;43.40;;
5553;SDS011;2800;49.528;8.666;2023-02-24T02:12:28;57.33;;;40.50;;
5553;SDS011;2800;49.528;8.666;2023-02-24T02:14:55;56.80;;;41.23;;
5553;SDS011;2800;49.528;8.666;2023-02-24T02:20:19;54.80;;;40.00;;
5553;SDS011;2800;49.528;8.666;2023-02-24T02:25:48;61.03;;;39.77;;
5553;SDS011;2800;49.528;8.666;2023-02-24T02:37:31;58.33;;;40.70;;
5553;SDS011;2800;49.528;8.666;2023-02-24T02:40:06;59.07;;;41.80;;
5553;SDS011;2800;49.528;8.666;2023-02-24T02:45:38;60.33;;;41.77;;
5553;SDS011;2800;49.528;8.666;2023-02-24T02:48:15;60.40;;;41.40;;
5553;SDS011;2800;49.528;8.666;2023-02-24T02:53:28;71.43;;;43.50;;
5553;SDS011;2800;49.528;8.666;2023-02-24T02:56:00;59.73;;;41.73;;
5553;SDS011;2800;49.528;8.666;2023-02-24T02:58:34;58.00;;;40.67;;
5553;SDS011;2800;49.528;8.666;2023-02-24T03:01:03;60.60;;;41.43;;
5553;SDS011;2800;49.528;8.666;2023-02-24T03:03:32;62.60;;;40.90;;
5553;SDS011;2800;49.528;8.666;2023-02-24T03:06:06;57.90;;;41.20;;
5553;SDS011;2800;49.528;8.666;2023-02-24T03:08:56;61.67;;;40.67;;
5553;SDS011;2800;49.528;8.666;2023-02-24T03:11:24;55.47;;;40.47;;
5553;SDS011;2800;49.528;8.666;2023-02-24T03:13:50;57.07;;;39.87;;
5553;SDS011;2800;49.528;8.666;2023-02-24T03:16:20;60.00;;;39.50;;
5553;SDS011;2800;49.528;8.666;2023-02-24T03:18:49;56.20;;;39.17;;
5553;SDS011;2800;49.528;8.666;2023-02-24T03:21:24;52.77;;;37.37;;
5553;SDS011;2800;49.528;8.666;2023-02-24T03:23:57;62.07;;;39.30;;
5553;SDS011;2800;49.528;8.666;2023-02-24T03:26:28;52.40;;;37.03;;
5553;SDS011;2800;49.528;8.666;2023-02-24T03:29:23;57.53;;;38.63;;
5553;SDS011;2800;49.528;8.666;2023-02-24T03:32:04;53.77;;;37.07;;
5553;SDS011;2800;49.528;8.666;2023-02-24T03:34:50;58.93;;;37.67;;
5553;SDS011;2800;49.528;8.666;2023-02-24T03:37:24;54.37;;;35.90;;
5553;SDS011;2800;49.528;8.666;2023-02-24T03:40:03;51.80;;;35.63;;
5553;SDS011;2800;49.528;8.666;2023-02-24T03:42:34;55.30;;;37.20;;
5553;SDS011;2800;49.528;8.666;2023-02-24T03:45:00;55.43;;;38.30;;
5553;SDS011;2800;49.528;8.666;2023-02-24T03:47:26;56.63;;;36.70;;
5553;SDS011;2800;49.528;8.666;2023-02-24T03:49:51;55.03;;;35.77;;
5553;SDS011;2800;49.528;8.666;2023-02-24T03:58:04;51.97;;;34.87;;
5553;SDS011;2800;49.528;8.666;2023-02-24T04:03:21;59.77;;;36.10;;
5553;SDS011;2800;49.528;8.666;2023-02-24T04:08:47;56.20;;;37.50;;
5553;SDS011;2800;49.528;8.666;2023-02-24T04:11:31;55.93;;;35.20;;
5553;SDS011;2800;49.528;8.666;2023-02-24T04:14:05;57.10;;;36.17;;
5553;SDS011;2800;49.528;8.666;2023-02-24T04:16:36;52.67;;;35.40;;
5553;SDS011;2800;49.528;8.666;2023-02-24T04:19:08;57.07;;;37.20;;
5553;SDS011;2800;49.528;8.666;2023-02-24T04:21:42;57.40;;;37.00;;
5553;SDS011;2800;49.528;8.666;2023-02-24T04:24:12;59.77;;;37.27;;
5553;SDS011;2800;49.528;8.666;2023-02-24T04:26:42;56.30;;;36.27;;
5553;SDS011;2800;49.528;8.666;2023-02-24T04:29:10;56.47;;;37.40;;
5553;SDS011;2800;49.528;8.666;2023-02-24T04:32:04;56.00;;;35.97;;
5553;SDS011;2800;49.528;8.666;2023-02-24T04:34:31;56.23;;;36.70;;
5553;SDS011;2800;49.528;8.666;2023-02-24T04:36:57;57.23;;;37.20;;
5553;SDS011;2800;49.528;8.666;2023-02-24T04:39:23;60.97;;;36.13;;
5553;SDS011;2800;49.528;8.666;2023-02-24T04:41:50;54.93;;;35.37;;
5553;SDS011;2800;49.528;8.666;2023-02-24T04:44:16;56.20;;;36.37;;
5553;SDS011;2800;49.528;8.666;2023-02-24T04:46:43;50.63;;;34.53;;
5553;SDS011;2800;49.528;8.666;2023-02-24T04:49:09;53.80;;;36.00;;
5553;SDS011;2800;49.528;8.666;2023-02-24T04:51:36;58.17;;;37.17;;
5553;SDS011;2800;49.528;8.666;2023-02-24T04:54:06;55.20;;;35.93;;
5553;SDS011;2800;49.528;8.666;2023-02-24T04:56:32;60.87;;;37.10;;
5553;SDS011;2800;49.528;8.666;2023-02-24T04:58:59;54.97;;;36.77;;
5553;SDS011;2800;49.528;8.666;2023-02-24T05:01:25;55.57;;;35.87;;
5553;SDS011;2800;49.528;8.666;2023-02-24T05:03:50;54.50;;;35.50;;
5553;SDS011;2800;49.528;8.666;2023-02-24T05:06:16;52.93;;;36.67;;
5553;SDS011;2800;49.528;8.666;2023-02-24T05:08:42;57.30;;;37.07;;
5553;SDS011;2800;49.528;8.666;2023-02-24T05:11:14;57.93;;;38.10;;
5553;SDS011;2800;49.528;8.666;2023-02-24T05:13:40;55.50;;;36.23;;
5553;SDS011;2800;49.528;8.666;2023-02-24T05:16:09;60.60;;;37.67;;
5553;SDS011;2800;49.528;8.666;2023-02-24T05:18:37;61.80;;;36.07;;
5553;SDS011;2800;49.528;8.666;2023-02-24T05:21:04;54.90;;;34.97;;
5553;SDS011;2800;49.528;8.666;2023-02-24T05:24:07;53.73;;;36.10;;
5553;SDS011;2800;49.528;8.666;2023-02-24T05:26:36;58.43;;;37.40;;
5553;SDS011;2800;49.528;8.666;2023-02-24T05:29:05;60.30;;;39.20;;
5553;SDS011;2800;49.528;8.666;2023-02-24T05:31:31;59.00;;;37.20;;
5553;SDS011;2800;49.528;8.666;2023-02-24T05:33:58;59.70;;;36.67;;
5553;SDS011;2800;49.528;8.666;2023-02-24T05:36:28;55.00;;;37.53;;
5553;SDS011;2800;49.528;8.666;2023-02-24T05:38:56;56.27;;;36.67;;
5553;SDS011;2800;49.528;8.666;2023-02-24T05:41:22;56.60;;;36.70;;
5553;SDS011;2800;49.528;8.666;2023-02-24T05:43:56;58.70;;;36.53;;
5553;SDS011;2800;49.528;8.666;2023-02-24T05:46:24;60.23;;;38.03;;
5553;SDS011;2800;49.528;8.666;2023-02-24T05:48:57;56.77;;;36.00;;
5553;SDS011;2800;49.528;8.666;2023-02-24T05:51:25;57.97;;;38.13;;
5553;SDS011;2800;49.528;8.666;2023-02-24T05:54:02;62.80;;;37.90;;
5553;SDS011;2800;49.528;8.666;2023-02-24T05:56:30;58.50;;;36.10;;
5553;SDS011;2800;49.528;8.666;2023-02-24T05:58:57;59.90;;;37.77;;
5553;SDS011;2800;49.528;8.666;2023-02-24T06:01:28;59.73;;;38.37;;
5553;SDS011;2800;49.528;8.666;2023-02-24T06:03:57;58.97;;;37.03;;
5553;SDS011;2800;49.528;8.666;2023-02-24T06:06:29;60.67;;;39.30;;
5553;SDS011;2800;49.528;8.666;2023-02-24T06:09:03;54.57;;;36.03;;
5553;SDS011;2800;49.528;8.666;2023-02-24T06:11:37;55.07;;;35.70;;
5553;SDS011;2800;49.528;8.666;2023-02-24T06:14:04;55.50;;;35.17;;
5553;SDS011;2800;49.528;8.666;2023-02-24T06:16:33;60.30;;;36.90;;
5553;SDS011;2800;49.528;8.666;2023-02-24T06:19:00;58.90;;;37.93;;
5553;SDS011;2800;49.528;8.666;2023-02-24T06:21:26;55.23;;;36.17;;
5553;SDS011;2800;49.528;8.666;2023-02-24T06:23:55;59.63;;;36.10;;
5553;SDS011;2800;49.528;8.666;2023-02-24T06:26:22;58.60;;;36.07;;
5553;SDS011;2800;49.528;8.666;2023-02-24T06:28:50;56.07;;;36.40;;
5553;SDS011;2800;49.528;8.666;2023-02-24T06:31:18;55.50;;;36.27;;
5553;SDS011;2800;49.528;8.666;2023-02-24T06:33:45;52.80;;;34.40;;
5553;SDS011;2800;49.528;8.666;2023-02-24T06:36:11;64.17;;;37.23;;
5553;SDS011;2800;49.528;8.666;2023-02-24T06:38:38;58.80;;;37.43;;
5553;SDS011;2800;49.528;8.666;2023-02-24T06:41:05;58.07;;;37.40;;
5553;SDS011;2800;49.528;8.666;2023-02-24T06:43:38;52.70;;;34.87;;
5553;SDS011;2800;49.528;8.666;2023-02-24T06:46:05;56.10;;;34.80;;
5553;SDS011;2800;49.528;8.666;2023-02-24T06:48:32;55.30;;;36.20;;
5553;SDS011;2800;49.528;8.666;2023-02-24T06:50:58;65.43;;;36.30;;
5553;SDS011;2800;49.528;8.666;2023-02-24T06:53:31;59.77;;;38.20;;
5553;SDS011;2800;49.528;8.666;2023-02-24T06:56:03;59.20;;;37.83;;
5553;SDS011;2800;49.528;8.666;2023-02-24T06:58:38;57.73;;;37.07;;
5553;SDS011;2800;49.528;8.666;2023-02-24T07:01:10;56.77;;;36.87;;
5553;SDS011;2800;49.528;8.666;2023-02-24T07:03:37;61.17;;;37.60;;
5553;SDS011;2800;49.528;8.666;2023-02-24T07:06:07;58.60;;;37.43;;
5553;SDS011;2800;49.528;8.666;2023-02-24T07:08:53;61.80;;;38.00;;
5553;SDS011;2800;49.528;8.666;2023-02-24T07:11:21;57.70;;;37.13;;
5553;SDS011;2800;49.528;8.666;2023-02-24T07:13:47;57.37;;;36.53;;
5553;SDS011;2800;49.528;8.666;2023-02-24T07:16:14;59.50;;;37.17;;
5553;SDS011;2800;49.528;8.666;2023-02-24T07:18:42;55.67;;;35.20;;
5553;SDS011;2800;49.528;8.666;2023-02-24T07:21:09;60.93;;;38.50;;
5553;SDS011;2800;49.528;8.666;2023-02-24T07:23:40;58.53;;;36.80;;
5553;SDS011;2800;49.528;8.666;2023-02-24T07:26:08;58.73;;;37.90;;
5553;SDS011;2800;49.528;8.666;2023-02-24T07:28:36;60.30;;;37.23;;
5553;SDS011;2800;49.528;8.666;2023-02-24T07:31:07;63.40;;;38.90;;
5553;SDS011;2800;49.528;8.666;2023-02-24T07:33:35;62.83;;;37.93;;
5553;SDS011;2800;49.528;8.666;2023-02-24T07:36:03;59.47;;;38.50;;
5553;SDS011;2800;49.528;8.666;2023-02-24T07:38:33;65.20;;;38.10;;
5553;SDS011;2800;49.528;8.666;2023-02-24T07:41:00;60.53;;;38.03;;
5553;SDS011;2800;49.528;8.666;2023-02-24T07:43:26;60.53;;;35.77;;
5553;SDS011;2800;49.528;8.666;2023-02-24T07:45:52;57.33;;;37.97;;
5553;SDS011;2800;49.528;8.666;2023-02-24T07:48:17;54.83;;;36.60;;
5553;SDS011;2800;49.528;8.666;2023-02-24T07:50:43;54.90;;;36.53;;
5553;SDS011;2800;49.528;8.666;2023-02-24T07:53:08;57.67;;;38.00;;
5553;SDS011;2800;49.528;8.666;2023-02-24T07:55:34;58.50;;;38.17;;
5553;SDS011;2800;49.528;8.666;2023-02-24T07:58:00;55.80;;;37.37;;
5553;SDS011;2800;49.528;8.666;2023-02-24T08:00:26;59.37;;;38.07;;
5553;SDS011;2800;49.528;8.666;2023-02-24T08:02:54;58.90;;;37.67;;
5553;SDS011;2800;49.528;8.666;2023-02-24T08:05:21;56.67;;;37.60;;
5553;SDS011;2800;49.528;8.666;2023-02-24T08:07:48;58.53;;;38.73;;
5553;SDS011;2800;49.528;8.666;2023-02-24T08:10:18;62.50;;;41.77;;
5553;SDS011;2800;49.528;8.666;2023-02-24T08:12:50;60.47;;;39.63;;
5553;SDS011;2800;49.528;8.666;2023-02-24T08:15:21;59.00;;;37.97;;
5553;SDS011;2800;49.528;8.666;2023-02-24T08:17:48;56.47;;;37.27;;
5553;SDS011;2800;49.528;8.666;2023-02-24T08:20:19;59.33;;;39.77;;
5553;SDS011;2800;49.528;8.666;2023-02-24T08:22:45;56.93;;;39.13;;
5553;SDS011;2800;49.528;8.666;2023-02-24T08:25:17;54.57;;;37.60;;
5553;SDS011;2800;49.528;8.666;2023-02-24T08:27:47;59.60;;;39.37;;
5553;SDS011;2800;49.528;8.666;2023-02-24T08:30:19;63.83;;;39.10;;
5553;SDS011;2800;49.528;8.666;2023-02-24T08:32:50;58.00;;;38.50;;
5553;SDS011;2800;49.528;8.666;2023-02-24T08:35:21;62.53;;;38.90;;
5553;SDS011;2800;49.528;8.666;2023-02-24T08:37:52;56.00;;;37.60;;
5553;SDS011;2800;49.528;8.666;2023-02-24T08:40:21;54.17;;;37.40;;
5553;SDS011;2800;49.528;8.666;2023-02-24T08:42:58;57.53;;;36.37;;
5553;SDS011;2800;49.528;8.666;2023-02-24T08:45:30;55.57;;;37.20;;
5553;SDS011;2800;49.528;8.666;2023-02-24T08:47:57;55.60;;;38.90;;
5553;SDS011;2800;49.528;8.666;2023-02-24T08:50:25;54.23;;;36.23;;
5553;SDS011;2800;49.528;8.666;2023-02-24T08:52:55;53.83;;;38.30;;
5553;SDS011;2800;49.528;8.666;2023-02-24T08:55:22;58.67;;;38.73;;
5553;SDS011;2800;49.528;8.666;2023-02-24T08:57:54;55.23;;;36.67;;
5553;SDS011;2800;49.528;8.666;2023-02-24T09:00:25;50.07;;;35.50;;
5553;SDS011;2800;49.528;8.666;2023-02-24T09:03:13;55.50;;;36.70;;
5553;SDS011;2800;49.528;8.666;2023-02-24T09:06:07;52.73;;;36.90;;
5553;SDS011;2800;49.528;8.666;2023-02-24T09:08:33;51.70;;;35.00;;
5553;SDS011;2800;49.528;8.666;2023-02-24T09:11:03;50.70;;;36.00;;
5553;SDS011;2800;49.528;8.666;2023-02-24T09:13:34;51.60;;;36.17;;
5553;SDS011;2800;49.528;8.666;2023-02-24T09:16:01;55.60;;;36.07;;
5553;SDS011;2800;49.528;8.666;2023-02-24T09:18:28;63.13;;;37.27;;
5553;SDS011;2800;49.528;8.666;2023-02-24T09:21:06;48.90;;;35.70;;
5553;SDS011;2800;49.528;8.666;2023-02-24T09:24:08;50.43;;;36.40;;
5553;SDS011;2800;49.528;8.666;2023-02-24T09:26:36;54.67;;;38.10;;
5553;SDS011;2800;49.528;8.666;2023-02-24T09:29:08;48.73;;;36.10;;
5553;SDS011;2800;49.528;8.666;2023-02-24T09:31:55;49.53;;;34.90;;
5553;SDS011;2800;49.528;8.666;2023-02-24T09:34:28;51.63;;;35.00;;
5553;SDS011;2800;49.528;8.666;2023-02-24T09:36:57;53.03;;;33.60;;
5553;SDS011;2800;49.528;8.666;2023-02-24T09:39:26;44.90;;;32.07;;
5553;SDS011;2800;49.528;8.666;2023-02-24T09:42:22;45.17;;;31.03;;
5553;SDS011;2800;49.528;8.666;2023-02-24T09:44:53;43.57;;;31.20;;
5553;SDS011;2800;49.528;8.666;2023-02-24T09:47:27;48.47;;;31.80;;
5553;SDS011;2800;49.528;8.666;2023-02-24T09:52:54;46.17;;;31.20;;
5553;SDS011;2800;49.528;8.666;2023-02-24T09:55:41;40.50;;;28.70;;
5553;SDS011;2800;49.528;8.666;2023-02-24T10:06:48;45.90;;;31.03;;
5553;SDS011;2800;49.528;8.666;2023-02-24T10:09:17;45.60;;;31.83;;
5553;SDS011;2800;49.528;8.666;2023-02-24T10:11:54;43.13;;;30.87;;
5553;SDS011;2800;49.528;8.666;2023-02-24T10:14:30;50.37;;;32.90;;
5553;SDS011;2800;49.528;8.666;2023-02-24T10:17:07;47.43;;;32.23;;
5553;SDS011;2800;49.528;8.666;2023-02-24T10:20:34;52.10;;;32.67;;
5553;SDS011;2800;49.528;8.666;2023-02-24T10:22:39;47.47;;;34.60;;
5553;SDS011;2800;49.528;8.666;2023-02-24T10:30:40;48.87;;;33.87;;
5553;SDS011;2800;49.528;8.666;2023-02-24T10:33:35;51.07;;;33.77;;
5553;SDS011;2800;49.528;8.666;2023-02-24T10:36:18;50.70;;;33.60;;
5553;SDS011;2800;49.528;8.666;2023-02-24T10:38:49;52.00;;;34.57;;
5553;SDS011;2800;49.528;8.666;2023-02-24T10:41:19;51.33;;;35.93;;
5553;SDS011;2800;49.528;8.666;2023-02-24T10:43:53;47.10;;;33.70;;
5553;SDS011;2800;49.528;8.666;2023-02-24T10:46:21;50.93;;;33.90;;
5553;SDS011;2800;49.528;8.666;2023-02-24T10:48:53;48.93;;;33.53;;
5553;SDS011;2800;49.528;8.666;2023-02-24T10:51:31;50.40;;;34.60;;
5553;SDS011;2800;49.528;8.666;2023-02-24T10:56:47;52.93;;;35.37;;
5553;SDS011;2800;49.528;8.666;2023-02-24T10:59:31;58.50;;;37.43;;
5553;SDS011;2800;49.528;8.666;2023-02-24T11:02:51;49.17;;;35.33;;
5553;SDS011;2800;49.528;8.666;2023-02-24T11:05:33;50.17;;;35.43;;
5553;SDS011;2800;49.528;8.666;2023-02-24T11:08:15;53.00;;;35.70;;
5553;SDS011;2800;49.528;8.666;2023-02-24T11:11:01;50.67;;;34.40;;
5553;SDS011;2800;49.528;8.666;2023-02-24T11:13:46;51.30;;;36.53;;
5553;SDS011;2800;49.528;8.666;2023-02-24T11:16:39;50.03;;;34.43;;
5553;SDS011;2800;49.528;8.666;2023-02-24T11:19:30;51.00;;;36.00;;
5553;SDS011;2800;49.528;8.666;2023-02-24T11:21:58;49.97;;;35.80;;
5553;SDS011;2800;49.528;8.666;2023-02-24T11:24:26;50.63;;;36.27;;
5553;SDS011;2800;49.528;8.666;2023-02-24T11:26:52;52.70;;;35.30;;
5553;SDS011;2800;49.528;8.666;2023-02-24T11:32:10;47.77;;;35.80;;
5553;SDS011;2800;49.528;8.666;2023-02-24T11:34:53;51.93;;;35.30;;
5553;SDS011;2800;49.528;8.666;2023-02-24T11:40:24;55.90;;;37.33;;
5553;SDS011;2800;49.528;8.666;2023-02-24T11:43:04;53.90;;;35.93;;
5553;SDS011;2800;49.528;8.666;2023-02-24T11:45:47;52.80;;;36.17;;
5553;SDS011;2800;49.528;8.666;2023-02-24T11:48:21;49.90;;;35.47;;
5553;SDS011;2800;49.528;8.666;2023-02-24T11:51:00;53.73;;;36.63;;
5553;SDS011;2800;49.528;8.666;2023-02-24T11:53:48;66.53;;;38.43;;
5553;SDS011;2800;49.528;8.666;2023-02-24T11:56:24;53.33;;;36.00;;
5553;SDS011;2800;49.528;8.666;2023-02-24T12:04:51;54.70;;;37.90;;
5553;SDS011;2800;49.528;8.666;2023-02-24T12:07:27;55.13;;;38.53;;
5553;SDS011;2800;49.528;8.666;2023-02-24T12:10:13;56.70;;;38.07;;
5553;SDS011;2800;49.528;8.666;2023-02-24T12:18:16;57.77;;;37.40;;
5553;SDS011;2800;49.528;8.666;2023-02-24T12:20:53;53.93;;;36.47;;
5553;SDS011;2800;49.528;8.666;2023-02-24T12:23:26;52.03;;;35.53;;
5553;SDS011;2800;49.528;8.666;2023-02-24T12:31:23;49.97;;;35.07;;
5553;SDS011;2800;49.528;8.666;2023-02-24T12:42:37;47.43;;;33.50;;
5553;SDS011;2800;49.528;8.666;2023-02-24T12:45:21;47.33;;;32.33;;
5553;SDS011;2800;49.528;8.666;2023-02-24T12:51:06;44.07;;;28.80;;
5553;SDS011;2800;49.528;8.666;2023-02-24T12:59:17;43.40;;;30.37;;
5553;SDS011;2800;49.528;8.666;2023-02-24T13:04:37;41.80;;;26.80;;
5553;SDS011;2800;49.528;8.666;2023-02-24T13:07:33;43.23;;;26.00;;
5553;SDS011;2800;49.528;8.666;2023-02-24T13:10:17;44.07;;;27.20;;
5553;SDS011;2800;49.528;8.666;2023-02-24T13:15:49;46.47;;;29.60;;
5553;SDS011;2800;49.528;8.666;2023-02-24T13:21:03;39.97;;;26.10;;
5553;SDS011;2800;49.528;8.666;2023-02-24T13:23:39;40.17;;;26.80;;
5553;SDS011;2800;49.528;8.666;2023-02-24T13:26:20;36.97;;;24.33;;
5553;SDS011;2800;49.528;8.666;2023-02-24T13:28:55;34.67;;;23.63;;
5553;SDS011;2800;49.528;8.666;2023-02-24T13:31:23;33.80;;;21.63;;
5553;SDS011;2800;49.528;8.666;2023-02-24T13:33:50;33.97;;;22.63;;
5553;SDS011;2800;49.528;8.666;2023-02-24T13:36:21;36.33;;;21.90;;
5553;SDS011;2800;49.528;8.666;2023-02-24T13:38:50;34.50;;;21.43;;
5553;SDS011;2800;49.528;8.666;2023-02-24T13:43:54;33.27;;;21.20;;
5553;SDS011;2800;49.528;8.666;2023-02-24T13:46:26;30.20;;;20.13;;
5553;SDS011;2800;49.528;8.666;2023-02-24T13:52:24;32.30;;;20.90;;
5553;SDS011;2800;49.528;8.666;2023-02-24T13:55:09;30.73;;;19.83;;
5553;SDS011;2800;49.528;8.666;2023-02-24T13:58:08;28.37;;;18.30;;
5553;SDS011;2800;49.528;8.666;2023-02-24T14:01:11;32.87;;;20.10;;
5553;SDS011;2800;49.528;8.666;2023-02-24T14:03:40;28.40;;;17.30;;
5553;SDS011;2800;49.528;8.666;2023-02-24T14:06:13;27.63;;;18.40;;
5553;SDS011;2800;49.528;8.666;2023-02-24T14:08:45;29.90;;;19.20;;
5553;SDS011;2800;49.528;8.666;2023-02-24T14:11:15;30.97;;;17.57;;
5553;SDS011;2800;49.528;8.666;2023-02-24T14:13:45;27.80;;;19.00;;
5553;SDS011;2800;49.528;8.666;2023-02-24T14:16:17;31.90;;;18.70;;
5553;SDS011;2800;49.528;8.666;2023-02-24T14:18:56;30.40;;;18.37;;
5553;SDS011;2800;49.528;8.666;2023-02-24T14:21:26;27.60;;;17.93;;
5553;SDS011;2800;49.528;8.666;2023-02-24T14:23:59;25.67;;;16.90;;
5553;SDS011;2800;49.528;8.666;2023-02-24T14:26:28;29.20;;;17.17;;
5553;SDS011;2800;49.528;8.666;2023-02-24T14:29:06;24.07;;;17.20;;
5553;SDS011;2800;49.528;8.666;2023-02-24T14:31:33;25.37;;;17.70;;
5553;SDS011;2800;49.528;8.666;2023-02-24T14:34:00;24.43;;;16.73;;
5553;SDS011;2800;49.528;8.666;2023-02-24T14:36:36;24.93;;;17.13;;
5553;SDS011;2800;49.528;8.666;2023-02-24T14:41:38;25.77;;;16.33;;
5553;SDS011;2800;49.528;8.666;2023-02-24T14:44:26;24.30;;;14.83;;
5553;SDS011;2800;49.528;8.666;2023-02-24T14:46:55;25.70;;;14.50;;
5553;SDS011;2800;49.528;8.666;2023-02-24T14:49:23;20.00;;;12.90;;
5553;SDS011;2800;49.528;8.666;2023-02-24T14:51:52;16.90;;;11.87;;
5553;SDS011;2800;49.528;8.666;2023-02-24T14:54:25;16.50;;;11.73;;
5553;SDS011;2800;49.528;8.666;2023-02-24T14:57:08;22.10;;;11.90;;
5553;SDS011;2800;49.528;8.666;2023-02-24T14:59:37;17.67;;;11.17;;
5553;SDS011;2800;49.528;8.666;2023-02-24T15:02:11;18.47;;;11.33;;
5553;SDS011;2800;49.528;8.666;2023-02-24T15:04:39;16.20;;;11.27;;
5553;SDS011;2800;49.528;8.666;2023-02-24T15:07:13;16.80;;;11.10;;
5553;SDS011;2800;49.528;8.666;2023-02-24T15:10:00;16.63;;;11.40;;
5553;SDS011;2800;49.528;8.666;2023-02-24T15:12:31;15.03;;;10.50;;
5553;SDS011;2800;49.528;8.666;2023-02-24T15:15:01;16.17;;;9.77;;
5553;SDS011;2800;49.528;8.666;2023-02-24T15:17:30;15.80;;;9.80;;
5553;SDS011;2800;49.528;8.666;2023-02-24T15:19:56;19.20;;;8.77;;
5553;SDS011;2800;49.528;8.666;2023-02-24T15:22:25;15.20;;;8.77;;
5553;SDS011;2800;49.528;8.666;2023-02-24T15:24:53;13.77;;;9.37;;
5553;SDS011;2800;49.528;8.666;2023-02-24T15:27:31;14.43;;;8.93;;
5553;SDS011;2800;49.528;8.666;2023-02-24T15:30:01;12.20;;;8.90;;
5553;SDS011;2800;49.528;8.666;2023-02-24T15:32:32;13.30;;;9.10;;
5553;SDS011;2800;49.528;8.666;2023-02-24T15:35:00;15.43;;;8.90;;
5553;SDS011;2800;49.528;8.666;2023-02-24T15:37:32;11.90;;;8.10;;
5553;SDS011;2800;49.528;8.666;2023-02-24T15:40:14;12.77;;;8.67;;
5553;SDS011;2800;49.528;8.666;2023-02-24T15:42:49;14.03;;;9.13;;
5553;SDS011;2800;49.528;8.666;2023-02-24T15:47:49;12.80;;;8.30;;
5553;SDS011;2800;49.528;8.666;2023-02-24T15:50:20;10.43;;;7.40;;
5553;SDS011;2800;49.528;8.666;2023-02-24T15:52:46;12.83;;;8.40;;
5553;SDS011;2800;49.528;8.666;2023-02-24T15:55:16;18.20;;;11.13;;
5553;SDS011;2800;49.528;8.666;2023-02-24T15:57:56;13.40;;;9.23;;
5553;SDS011;2800;49.528;8.666;2023-02-24T16:00:24;13.40;;;8.30;;
5553;SDS011;2800;49.528;8.666;2023-02-24T16:02:50;11.70;;;8.53;;
5553;SDS011;2800;49.528;8.666;2023-02-24T16:05:15;13.13;;;8.40;;
5553;SDS011;2800;49.528;8.666;2023-02-24T16:07:44;13.53;;;8.70;;
5553;SDS011;2800;49.528;8.666;2023-02-24T16:10:18;11.47;;;7.87;;
5553;SDS011;2800;49.528;8.666;2023-02-24T16:12:52;11.20;;;7.73;;
5553;SDS011;2800;49.528;8.666;2023-02-24T16:15:30;13.33;;;8.47;;
5553;SDS011;2800;49.528;8.666;2023-02-24T16:18:01;14.20;;;8.40;;
5553;SDS011;2800;49.528;8.666;2023-02-24T16:20:28;12.07;;;8.10;;
5553;SDS011;2800;49.528;8.666;2023-02-24T16:23:02;12.33;;;8.10;;
5553;SDS011;2800;49.528;8.666;2023-02-24T16:25:29;11.30;;;7.83;;
5553;SDS011;2800;49.528;8.666;2023-02-24T16:28:00;11.53;;;7.90;;
5553;SDS011;2800;49.528;8.666;2023-02-24T16:30:26;13.93;;;9.10;;
5553;SDS011;2800;49.528;8.666;2023-02-24T16:32:54;12.40;;;8.80;;
5553;SDS011;2800;49.528;8.666;2023-02-24T16:35:21;14.10;;;8.83;;
5553;SDS011;2800;49.528;8.666;2023-02-24T16:37:48;13.33;;;9.23;;
5553;SDS011;2800;49.528;8.666;2023-02-24T16:40:16;19.77;;;12.37;;
5553;SDS011;2800;49.528;8.666;2023-02-24T16:42:54;15.77;;;11.87;;
5553;SDS011;2800;49.528;8.666;2023-02-24T16:45:20;16.30;;;11.47;;
5553;SDS011;2800;49.528;8.666;2023-02-24T16:47:49;20.67;;;14.87;;
5553;SDS011;2800;49.528;8.666;2023-02-24T16:50:18;13.90;;;10.00;;
5553;SDS011;2800;49.528;8.666;2023-02-24T16:53:05;13.17;;;9.40;;
5553;SDS011;2800;49.528;8.666;2023-02-24T16:55:31;15.10;;;10.70;;
5553;SDS011;2800;49.528;8.666;2023-02-24T16:57:57;17.80;;;9.93;;
5553;SDS011;2800;49.528;8.666;2023-02-24T17:00:23;14.80;;;9.83;;
5553;SDS011;2800;49.528;8.666;2023-02-24T17:02:49;14.83;;;8.93;;
5553;SDS011;2800;49.528;8.666;2023-02-24T17:05:22;18.03;;;13.47;;
5553;SDS011;2800;49.528;8.666;2023-02-24T17:07:50;15.53;;;10.20;;
5553;SDS011;2800;49.528;8.666;2023-02-24T17:10:17;13.70;;;10.53;;
5553;SDS011;2800;49.528;8.666;2023-02-24T17:12:43;13.47;;;10.20;;